Time;durP1;ratioP1;P1;durP2;ratioP2;P2;SDS_P1;SDS_P2;PMS_P1;PMS_P2;Temp;Humidity;BMP_temperature;BMP_pressure;BME280_temperature;BME280_humidity;BME280_pressure;Samples;Min_cycle;Max_cycle;Signal;HPM_P1;HPM_P2
2021/04/06 00:02:08;;;;;;;15.52;2.92;;;;;;;0.72;80.23;101330.97;5132611;27;20080;-66
2021/04/06 00:04:38;;;;;;;22.20;3.35;;;;;;;0.59;81.23;101332.94;5131303;27;20078;-66
2021/04/06 00:07:06;;;;;;;20.98;3.15;;;;;;;0.48;83.25;101331.47;5132719;27;20395;-66
2021/04/06 00:09:34;;;;;;;23.42;3.25;;;;;;;0.37;86.60;101335.22;5130092;27;20027;-66
2021/04/06 00:12:03;;;;;;;25.98;3.70;;;;;;;0.39;87.65;101344.00;5132482;27;20072;-65
2021/04/06 00:14:30;;;;;;;18.27;2.85;;;;;;;0.62;84.86;101345.22;5132382;27;20027;-64
2021/04/06 00:16:59;;;;;;;23.25;3.55;;;;;;;0.69;84.90;101369.03;5132808;27;20064;-66
2021/04/06 00:19:26;;;;;;;19.90;3.13;;;;;;;0.84;83.39;101365.44;5130475;27;20023;-65
2021/04/06 00:21:55;;;;;;;19.17;3.25;;;;;;;0.75;84.15;101354.56;5132588;27;20031;-66
2021/04/06 00:24:25;;;;;;;18.38;2.78;;;;;;;0.78;83.12;101342.59;5132022;27;20053;-66
2021/04/06 00:27:09;;;;;;;20.65;2.72;;;;;;;0.78;81.97;101339.09;5132113;27;20035;-65
2021/04/06 00:29:36;;;;;;;16.33;2.67;;;;;;;0.68;79.70;101343.84;5130836;27;20462;-65
2021/04/06 00:32:04;;;;;;;16.08;2.40;;;;;;;0.50;81.00;101342.84;5132278;27;20089;-65
2021/04/06 00:34:31;;;;;;;15.75;2.42;;;;;;;0.33;82.63;101352.34;5129772;27;20030;-65
2021/04/06 00:37:02;;;;;;;16.15;2.20;;;;;;;0.27;83.53;101357.22;5131550;27;20019;-64
2021/04/06 00:39:30;;;;;;;16.48;2.45;;;;;;;0.20;83.62;101366.38;5131841;27;20015;-65
2021/04/06 00:42:05;;;;;;;14.13;2.20;;;;;;;0.33;82.08;101379.25;5132466;27;20230;-64
2021/04/06 00:44:32;;;;;;;13.30;2.38;;;;;;;0.38;81.58;101368.19;5131723;27;20027;-65
2021/04/06 00:46:59;;;;;;;18.30;3.15;;;;;;;0.44;81.18;101360.75;5131909;27;20106;-65
2021/04/06 00:49:24;;;;;;;19.27;2.60;;;;;;;0.38;81.82;101347.38;5131901;27;20030;-65
2021/04/06 00:51:52;;;;;;;18.05;2.60;;;;;;;0.34;82.80;101352.44;5131196;27;20028;-64
2021/04/06 00:54:18;;;;;;;10.73;2.10;;;;;;;0.29;82.57;101351.31;5132006;27;20038;-65
2021/04/06 00:56:44;;;;;;;19.50;2.80;;;;;;;0.03;86.37;101348.97;5130527;27;20041;-65
2021/04/06 00:59:19;;;;;;;19.02;2.70;;;;;;;-0.16;88.73;101347.97;5132396;27;20028;-65
2021/04/06 01:01:46;;;;;;;21.70;2.83;;;;;;;-0.27;92.30;101341.28;5131760;27;20031;-65
2021/04/06 01:04:15;;;;;;;19.35;2.75;;;;;;;-0.37;93.78;101338.13;5130123;28;20039;-65
2021/04/06 01:07:06;;;;;;;18.15;3.05;;;;;;;-0.45;95.06;101339.44;5131026;27;20419;-65
2021/04/06 01:09:43;;;;;;;18.17;2.63;;;;;;;-0.47;93.73;101342.75;5132012;28;20031;-65
2021/04/06 01:12:11;;;;;;;21.25;2.90;;;;;;;-0.54;95.05;101349.28;5131357;28;20904;-66
2021/04/06 01:14:39;;;;;;;22.77;3.20;;;;;;;-0.58;96.46;101348.22;5132059;27;20492;-65
2021/04/06 01:17:06;;;;;;;22.23;3.83;;;;;;;-0.56;100.00;101350.91;5132065;28;20057;-66
2021/04/06 01:19:33;;;;;;;25.58;3.92;;;;;;;-0.51;100.00;101352.06;5131175;28;20470;-66
2021/04/06 01:22:00;;;;;;;31.15;5.30;;;;;;;-0.37;100.00;101350.25;5133893;27;20027;-66
2021/04/06 01:24:30;;;;;;;31.13;5.00;;;;;;;-0.27;100.00;101346.47;5136107;27;20123;-65
2021/04/06 01:26:57;;;;;;;30.20;5.10;;;;;;;-0.12;100.00;101346.44;5135995;27;20039;-66
2021/04/06 01:29:23;;;;;;;33.70;5.03;;;;;;;-0.04;100.00;101346.03;5136352;27;20023;-65
2021/04/06 01:31:49;;;;;;;29.75;5.43;;;;;;;0.01;100.00;101345.41;5135786;27;20118;-66
2021/04/06 01:34:17;;;;;;;23.42;4.47;;;;;;;0.03;99.52;101347.28;5135089;27;20022;-66
2021/04/06 01:36:45;;;;;;;27.20;4.28;;;;;;;0.19;95.45;101358.50;5135677;27;20034;-65
2021/04/06 01:39:16;;;;;;;28.27;4.82;;;;;;;0.23;95.64;101358.75;5136011;27;20400;-65
2021/04/06 01:41:49;;;;;;;25.67;4.70;;;;;;;0.32;92.99;101361.88;5135649;27;20027;-64
2021/04/06 01:44:15;;;;;;;27.45;4.75;;;;;;;0.55;90.32;101357.00;5134090;27;20465;-65
2021/04/06 01:46:45;;;;;;;24.45;3.60;;;;;;;0.66;88.49;101345.44;5134207;27;20038;-65
2021/04/06 01:49:15;;;;;;;29.80;4.38;;;;;;;0.43;90.65;101349.44;5135534;27;20019;-65
2021/04/06 01:51:42;;;;;;;28.60;3.92;;;;;;;0.41;90.18;101337.16;5135458;27;20012;-65
2021/04/06 01:54:09;;;;;;;24.52;3.65;;;;;;;0.28;91.64;101339.09;5135385;27;20023;-66
2021/04/06 01:57:12;;;;;;;22.30;3.10;;;;;;;0.48;88.16;101332.38;5135393;27;20049;-64
2021/04/06 01:59:37;;;;;;;20.58;3.13;;;;;;;0.39;88.79;101341.38;5135018;27;20461;-64
2021/04/06 02:02:03;;;;;;;18.17;2.90;;;;;;;0.34;87.96;101344.63;5135581;27;20474;-65
2021/04/06 02:04:30;;;;;;;22.38;3.20;;;;;;;0.33;87.03;101329.81;5135098;27;20023;-65
2021/04/06 02:06:59;;;;;;;18.98;2.72;;;;;;;0.29;86.15;101330.50;5135015;27;20111;-66
2021/04/06 02:09:25;;;;;;;18.70;2.80;;;;;;;0.13;86.68;101327.84;5135298;27;20419;-64
2021/04/06 02:11:51;;;;;;;10.48;1.95;;;;;;;0.12;86.50;101336.50;5134952;27;20019;-66
2021/04/06 02:14:20;;;;;;;19.13;2.97;;;;;;;0.14;85.83;101317.53;5133481;27;20396;-65
2021/04/06 02:16:46;;;;;;;17.77;2.90;;;;;;;0.03;86.92;101317.78;5134898;27;20027;-66
2021/04/06 02:19:29;;;;;;;19.25;3.55;;;;;;;0.06;86.24;101318.84;5135430;27;20041;-66
2021/04/06 02:21:58;;;;;;;18.63;2.75;;;;;;;0.00;86.57;101315.94;5132425;27;20109;-66
2021/04/06 02:24:49;;;;;;;22.70;3.50;;;;;;;0.00;85.72;101318.53;5134299;27;20047;-66
2021/04/06 02:27:19;;;;;;;17.83;2.60;;;;;;;-0.02;84.94;101317.53;5134248;27;20481;-66
2021/04/06 02:29:58;;;;;;;18.33;3.00;;;;;;;-0.27;85.91;101310.09;5134710;27;20377;-66
2021/04/06 02:32:33;;;;;;;18.70;2.80;;;;;;;-0.27;85.17;101323.09;5132337;27;20024;-66
2021/04/06 02:35:00;;;;;;;19.20;2.67;;;;;;;-0.37;85.89;101319.06;5135850;27;20019;-67
2021/04/06 02:37:31;;;;;;;21.90;3.10;;;;;;;-0.43;86.13;101326.53;5133411;27;20044;-66
2021/04/06 02:40:07;;;;;;;21.33;2.95;;;;;;;-0.38;86.00;101315.59;5134938;27;20027;-66
2021/04/06 02:42:35;;;;;;;20.92;3.08;;;;;;;-0.20;83.40;101322.63;5134923;27;20038;-65
2021/04/06 02:45:00;;;;;;;15.10;2.40;;;;;;;-0.27;84.63;101321.38;5133440;27;20088;-66
2021/04/06 02:47:27;;;;;;;19.92;3.10;;;;;;;-0.04;82.53;101321.75;5133876;27;20473;-66
2021/04/06 02:49:53;;;;;;;21.65;2.75;;;;;;;-0.06;82.97;101324.28;5133961;27;20034;-66
2021/04/06 02:52:18;;;;;;;19.88;2.88;;;;;;;0.13;81.80;101317.47;5134473;27;20031;-66
2021/04/06 02:54:44;;;;;;;20.58;3.47;;;;;;;0.08;81.93;101319.81;5134042;27;20034;-66
2021/04/06 02:57:20;;;;;;;17.80;2.80;;;;;;;0.09;82.15;101321.63;5134022;27;20059;-66
2021/04/06 02:59:45;;;;;;;23.98;3.60;;;;;;;0.13;82.13;101323.56;5132936;27;20449;-66
2021/04/06 03:02:11;;;;;;;22.60;3.15;;;;;;;0.27;81.64;101326.91;5133787;27;20125;-66
2021/04/06 03:04:39;;;;;;;16.92;3.17;;;;;;;0.36;81.05;101330.81;5133071;27;20373;-66
2021/04/06 03:07:21;;;;;;;22.88;3.13;;;;;;;0.56;80.77;101316.28;5133268;27;20362;-66
2021/04/06 03:09:55;;;;;;;23.83;2.97;;;;;;;0.47;82.09;101304.56;5133579;27;20102;-65
2021/04/06 03:12:25;;;;;;;20.85;3.08;;;;;;;0.27;83.08;101319.09;5132854;27;20016;-66
2021/04/06 03:14:51;;;;;;;19.70;3.25;;;;;;;0.27;83.11;101313.00;5133956;27;20059;-65
2021/04/06 03:17:16;;;;;;;21.20;2.70;;;;;;;0.23;82.97;101316.25;5133122;27;20050;-65
2021/04/06 03:19:43;;;;;;;20.48;2.53;;;;;;;0.15;83.47;101310.66;5133179;27;20075;-66
2021/04/06 03:22:10;;;;;;;18.85;3.10;;;;;;;0.44;80.49;101316.53;5133575;27;20155;-66
2021/04/06 03:24:35;;;;;;;19.48;2.95;;;;;;;0.31;81.26;101317.56;5133486;27;20047;-66
2021/04/06 03:27:05;;;;;;;18.17;2.88;;;;;;;0.36;80.33;101316.09;5133483;27;20526;-65
2021/04/06 03:29:31;;;;;;;15.60;2.35;;;;;;;0.25;79.89;101323.34;5133833;27;20477;-65
2021/04/06 03:31:59;;;;;;;23.35;3.45;;;;;;;0.12;81.58;101332.19;5133092;27;20481;-66
2021/04/06 03:34:37;;;;;;;17.77;2.70;;;;;;;0.05;81.88;101332.66;5133145;27;20035;-65
2021/04/06 03:37:04;;;;;;;22.63;3.30;;;;;;;-0.20;85.11;101338.22;5130050;27;20561;-65
2021/04/06 03:39:32;;;;;;;20.20;2.75;;;;;;;-0.10;84.73;101334.41;5130810;27;20027;-66
2021/04/06 03:41:57;;;;;;;20.55;3.47;;;;;;;-0.10;86.24;101339.59;5133599;27;20054;-64
2021/04/06 03:44:28;;;;;;;18.65;2.95;;;;;;;-0.13;88.58;101344.63;5132219;27;20485;-64
2021/04/06 03:47:02;;;;;;;14.75;2.42;;;;;;;0.36;84.17;101341.22;5131279;27;20038;-64
2021/04/06 03:49:30;;;;;;;18.15;2.97;;;;;;;0.37;84.09;101335.22;5133084;27;20026;-64
2021/04/06 03:52:00;;;;;;;25.95;3.10;;;;;;;0.08;86.46;101322.41;5133638;27;20026;-64
2021/04/06 03:54:33;;;;;;;23.02;3.45;;;;;;;0.14;84.50;101320.13;5132076;27;20042;-63
2021/04/06 03:57:00;;;;;;;20.35;2.70;;;;;;;0.05;83.73;101314.44;5131905;27;20035;-64
2021/04/06 03:59:28;;;;;;;12.27;2.40;;;;;;;-0.07;82.62;101306.00;5133297;27;20065;-65
2021/04/06 04:01:54;;;;;;;17.60;2.80;;;;;;;-0.46;83.79;101309.06;5132123;27;20042;-63
2021/04/06 04:04:19;;;;;;;13.30;2.28;;;;;;;-0.50;84.91;101314.88;5132999;27;20473;-64
2021/04/06 04:06:45;;;;;;;11.98;2.15;;;;;;;-0.55;84.62;101316.34;5133014;27;20358;-65
2021/04/06 04:09:10;;;;;;;9.25;1.98;;;;;;;-0.69;85.36;101328.53;5132555;27;20488;-63
2021/04/06 04:11:35;;;;;;;12.98;2.30;;;;;;;-0.78;85.99;101326.28;5133349;27;20461;-63
2021/04/06 04:14:01;;;;;;;14.02;2.60;;;;;;;-0.82;86.06;101318.22;5132995;27;20534;-64
2021/04/06 04:16:27;;;;;;;10.38;2.00;;;;;;;-0.91;86.69;101334.16;5132099;27;20025;-65
2021/04/06 04:18:53;;;;;;;10.02;2.33;;;;;;;-0.86;85.81;101324.94;5132540;27;20054;-63
2021/04/06 04:21:18;;;;;;;10.50;2.30;;;;;;;-0.98;87.84;101322.53;5132489;27;20054;-64
2021/04/06 04:23:44;;;;;;;11.95;2.20;;;;;;;-0.76;85.26;101328.97;5132398;27;20047;-64
2021/04/06 04:26:10;;;;;;;12.77;2.10;;;;;;;-0.80;85.54;101330.50;5132281;27;20074;-63
2021/04/06 04:28:35;;;;;;;16.00;2.50;;;;;;;-0.77;86.04;101328.09;5132912;27;20104;-65
2021/04/06 04:31:06;;;;;;;15.13;2.58;;;;;;;-0.90;88.72;101341.16;5132578;27;20415;-66
2021/04/06 04:33:32;;;;;;;17.70;2.65;;;;;;;-0.92;89.30;101335.88;5130607;27;20513;-66
2021/04/06 04:35:57;;;;;;;17.80;2.80;;;;;;;-0.90;90.21;101325.59;5131556;27;20099;-66
2021/04/06 04:38:22;;;;;;;21.20;2.97;;;;;;;-0.86;90.05;101326.66;5132807;27;20027;-65
2021/04/06 04:40:48;;;;;;;21.75;2.92;;;;;;;-0.84;90.70;101325.06;5132692;27;20034;-64
2021/04/06 04:43:14;;;;;;;21.13;2.67;;;;;;;-0.79;90.17;101321.88;5132575;27;20095;-64
2021/04/06 04:45:40;;;;;;;11.70;2.05;;;;;;;-0.63;87.29;101325.38;5130611;27;20023;-64
2021/04/06 04:48:06;;;;;;;19.77;2.58;;;;;;;-0.73;88.27;101336.94;5132093;27;20406;-64
2021/04/06 04:50:32;;;;;;;19.35;2.90;;;;;;;-0.82;89.75;101337.28;5131955;27;20354;-65
2021/04/06 04:52:58;;;;;;;17.20;2.80;;;;;;;-0.77;88.50;101338.47;5132356;27;20504;-64
2021/04/06 04:55:24;;;;;;;14.82;2.70;;;;;;;-0.91;91.33;101337.66;5131585;27;20106;-64
2021/04/06 04:57:49;;;;;;;18.75;2.88;;;;;;;-0.92;91.01;101335.88;5131870;27;20023;-64
2021/04/06 05:00:16;;;;;;;20.05;3.00;;;;;;;-0.95;93.36;101334.78;5131852;28;20031;-64
2021/04/06 05:02:42;;;;;;;20.25;2.80;;;;;;;-0.95;93.82;101339.97;5131794;27;20035;-64
2021/04/06 05:05:09;;;;;;;17.17;3.30;;;;;;;-1.02;96.21;101335.22;5132227;27;20084;-64
2021/04/06 05:07:38;;;;;;;16.77;3.50;;;;;;;-1.09;97.98;101334.88;5131865;28;20072;-64
2021/04/06 05:10:08;;;;;;;18.40;3.75;;;;;;;-1.16;100.00;101332.72;5132502;28;20359;-65
2021/04/06 05:12:33;;;;;;;18.58;2.90;;;;;;;-1.09;99.42;101334.00;5128750;28;20031;-66
2021/04/06 05:14:59;;;;;;;18.90;2.80;;;;;;;-1.18;100.00;101329.16;5131278;28;20083;-64
2021/04/06 05:17:24;;;;;;;17.77;3.28;;;;;;;-1.22;100.00;101332.38;5130735;27;20042;-65
2021/04/06 05:19:50;;;;;;;19.95;3.30;;;;;;;-1.26;100.00;101331.28;5132034;28;20027;-66
2021/04/06 05:22:15;;;;;;;17.60;3.33;;;;;;;-1.16;100.00;101340.50;5131915;28;20385;-65
2021/04/06 05:24:40;;;;;;;22.40;4.03;;;;;;;-1.08;100.00;101336.69;5131404;27;20042;-65
2021/04/06 05:27:06;;;;;;;18.10;3.65;;;;;;;-0.89;100.00;101338.66;5131403;28;20110;-66
2021/04/06 05:29:31;;;;;;;20.90;3.53;;;;;;;-0.85;100.00;101329.31;5131810;27;20031;-66
2021/04/06 05:31:57;;;;;;;20.92;3.72;;;;;;;-0.89;100.00;101330.88;5131993;28;20110;-66
2021/04/06 05:34:22;;;;;;;18.85;3.55;;;;;;;-0.92;100.00;101334.97;5130510;27;20022;-66
2021/04/06 05:36:48;;;;;;;15.15;2.83;;;;;;;-0.94;100.00;101328.81;5131147;27;20477;-65
2021/04/06 05:39:13;;;;;;;23.25;3.42;;;;;;;-0.88;100.00;101334.34;5131802;28;20034;-66
2021/04/06 05:41:47;;;;;;;20.15;3.40;;;;;;;-0.67;100.00;101341.59;5131058;27;20026;-65
2021/04/06 05:44:14;;;;;;;21.63;3.15;;;;;;;-0.46;100.00;101340.22;5130030;27;20072;-66
2021/04/06 05:46:41;;;;;;;19.83;2.95;;;;;;;-0.28;100.00;101349.88;5131499;28;20023;-66
2021/04/06 05:49:20;;;;;;;20.05;3.10;;;;;;;-0.25;95.91;101365.63;5130817;27;20031;-66
2021/04/06 05:51:45;;;;;;;13.10;2.38;;;;;;;-0.47;98.42;101369.59;5130159;28;20019;-66
2021/04/06 05:54:12;;;;;;;10.32;2.42;;;;;;;-0.33;96.67;101379.91;5130609;27;20088;-65
2021/04/06 05:56:39;;;;;;;11.73;2.42;;;;;;;-0.38;97.05;101374.44;5130906;28;20023;-66
2021/04/06 05:59:05;;;;;;;11.07;2.42;;;;;;;-0.47;97.91;101381.72;5131664;27;20041;-65
2021/04/06 06:01:32;;;;;;;14.80;3.38;;;;;;;-0.65;100.00;101374.63;5131185;28;20035;-65
2021/04/06 06:03:57;;;;;;;19.42;3.58;;;;;;;-0.60;100.00;101367.09;5131472;27;20027;-64
2021/04/06 06:06:24;;;;;;;18.55;3.17;;;;;;;-0.67;100.00;101355.50;5129712;27;20024;-66
2021/04/06 06:08:52;;;;;;;14.75;3.97;;;;;;;-0.79;100.00;101359.94;5134726;27;20431;-66
2021/04/06 06:11:18;;;;;;;21.02;4.28;;;;;;;-0.88;100.00;101360.31;5135353;27;20053;-65
2021/04/06 06:13:43;;;;;;;21.05;4.40;;;;;;;-0.96;100.00;101349.47;5134916;27;20110;-65
2021/04/06 06:16:08;;;;;;;20.50;4.35;;;;;;;-1.00;100.00;101357.88;5134883;27;20076;-65
2021/04/06 06:18:53;;;;;;;18.70;4.05;;;;;;;-1.07;100.00;101360.91;5134931;27;20031;-64
2021/04/06 06:21:19;;;;;;;16.65;4.03;;;;;;;-1.10;100.00;101359.03;5134335;27;20118;-65
2021/04/06 06:23:45;;;;;;;20.35;4.40;;;;;;;-1.10;100.00;101358.16;5134459;27;20109;-66
2021/04/06 06:26:10;;;;;;;22.08;4.90;;;;;;;-1.14;100.00;101357.06;5134764;27;20401;-67
2021/04/06 06:28:36;;;;;;;23.70;5.90;;;;;;;-1.15;100.00;101354.38;5134386;27;20369;-67
2021/04/06 06:31:04;;;;;;;23.77;6.03;;;;;;;-1.16;100.00;101358.66;5134496;27;20058;-65
2021/04/06 06:33:33;;;;;;;26.17;7.25;;;;;;;-1.08;100.00;101366.91;5134115;27;20031;-65
2021/04/06 06:36:24;;;;;;;25.50;6.63;;;;;;;-0.99;100.00;101362.28;5134780;27;20023;-68
2021/04/06 06:38:49;;;;;;;24.55;6.25;;;;;;;-0.84;100.00;101362.28;5128972;27;20076;-65
2021/04/06 06:41:21;;;;;;;23.50;5.93;;;;;;;-0.61;100.00;101366.22;5133677;27;20423;-66
2021/04/06 06:43:49;;;;;;;25.60;7.43;;;;;;;-0.35;100.00;101361.59;5129694;27;20080;-66
2021/04/06 06:46:23;;;;;;;22.33;6.47;;;;;;;0.01;100.00;101372.28;5131877;27;20031;-65
2021/04/06 06:49:03;;;;;;;22.75;6.93;;;;;;;0.26;100.00;101366.75;5132338;27;20397;-65
2021/04/06 06:51:31;;;;;;;23.48;6.90;;;;;;;0.38;100.00;101370.81;5133142;27;20019;-66
2021/04/06 06:53:57;;;;;;;21.83;7.38;;;;;;;0.30;100.00;101373.88;5134047;27;20023;-67
2021/04/06 06:57:05;;;;;;;22.05;8.15;;;;;;;0.36;99.92;101367.25;5134043;27;20030;-66
2021/04/06 06:59:35;;;;;;;25.48;9.45;;;;;;;-0.08;100.00;101377.88;5066633;28;20040;-66
2021/04/06 07:02:29;;;;;;;24.27;9.88;;;;;;;-0.45;100.00;101364.50;5066567;28;20047;-68
2021/04/06 07:05:19;;;;;;;23.13;7.60;;;;;;;-0.26;100.00;101351.75;5060211;28;20029;-66
2021/04/06 07:07:53;;;;;;;24.38;8.35;;;;;;;-0.30;100.00;101347.19;5061510;28;20044;-66
2021/04/06 07:10:20;;;;;;;25.33;8.60;;;;;;;-0.33;100.00;101362.59;5062342;28;20047;-66
2021/04/06 07:12:51;;;;;;;18.45;6.25;;;;;;;-0.38;100.00;101366.63;5066247;28;20127;-65
2021/04/06 07:15:18;;;;;;;25.23;9.35;;;;;;;-0.56;100.00;101362.16;5065312;28;20116;-65
2021/04/06 07:17:44;;;;;;;25.27;9.05;;;;;;;-0.38;100.00;101359.75;5067984;28;20032;-65
2021/04/06 07:20:13;;;;;;;25.85;9.95;;;;;;;-0.43;100.00;101343.00;5063510;28;20028;-63
2021/04/06 07:22:40;;;;;;;27.67;9.23;;;;;;;-0.37;100.00;101345.94;5061469;28;20664;-63
2021/04/06 07:25:06;;;;;;;31.13;9.57;;;;;;;-0.29;100.00;101343.78;5058535;28;20503;-64
2021/04/06 07:27:32;;;;;;;26.83;9.48;;;;;;;-0.29;100.00;101342.88;5067753;28;20094;-63
2021/04/06 07:29:58;;;;;;;24.63;7.40;;;;;;;-0.27;100.00;101342.16;5066142;28;20032;-63
2021/04/06 07:32:23;;;;;;;23.55;7.07;;;;;;;-0.27;100.00;101342.16;5067711;28;20118;-63
2021/04/06 07:34:49;;;;;;;22.98;7.68;;;;;;;-0.11;100.00;101343.03;5095281;27;20039;-63
2021/04/06 07:37:14;;;;;;;21.35;4.93;;;;;;;-0.05;100.00;101344.25;5132360;27;20031;-63
2021/04/06 07:39:40;;;;;;;19.80;5.47;;;;;;;0.16;100.00;101331.53;5133067;27;20076;-64
2021/04/06 07:42:06;;;;;;;21.95;6.80;;;;;;;0.38;100.00;101336.97;5133728;27;20072;-64
2021/04/06 07:44:36;;;;;;;21.40;6.38;;;;;;;0.43;100.00;101332.94;5133396;27;20023;-64
2021/04/06 07:47:01;;;;;;;19.85;6.93;;;;;;;0.51;100.00;101337.72;5132737;27;20038;-64
2021/04/06 07:49:27;;;;;;;20.42;5.82;;;;;;;0.64;100.00;101333.16;5132902;27;20023;-65
2021/04/06 07:51:55;;;;;;;21.33;5.38;;;;;;;0.56;100.00;101340.56;5132382;27;20031;-64
2021/04/06 07:54:43;;;;;;;18.98;5.57;;;;;;;0.58;100.00;101343.25;5130624;27;20373;-64
2021/04/06 07:57:08;;;;;;;20.00;5.20;;;;;;;0.76;97.20;101340.72;5132752;27;20485;-64
2021/04/06 07:59:34;;;;;;;21.58;6.22;;;;;;;0.75;99.93;101333.75;5133340;27;20060;-64
2021/04/06 08:02:01;;;;;;;20.20;5.72;;;;;;;0.74;98.18;101350.16;5132808;27;20508;-64
2021/04/06 08:04:49;;;;;;;18.90;5.20;;;;;;;1.14;91.82;101347.91;5132377;27;20027;-64
2021/04/06 08:07:21;;;;;;;19.38;4.95;;;;;;;1.13;90.12;101346.09;5065579;28;20036;-64
2021/04/06 08:09:49;;;;;;;21.02;4.82;;;;;;;1.42;88.98;101348.41;5065226;28;20043;-63
2021/04/06 08:12:25;;;;;;;19.25;3.95;;;;;;;1.63;89.45;101354.66;5068777;28;20064;-64
2021/04/06 08:15:16;;;;;;;20.08;4.60;;;;;;;1.62;82.34;101344.16;5064453;28;20429;-64
2021/04/06 08:17:48;;;;;;;17.42;3.72;;;;;;;1.58;82.04;101345.72;5064790;28;20040;-64
2021/04/06 08:20:13;;;;;;;19.58;4.15;;;;;;;1.89;82.52;101353.31;5062462;28;20066;-66
2021/04/06 08:23:05;;;;;;;16.90;3.50;;;;;;;1.99;82.58;101338.97;5045973;28;20478;-66
2021/04/06 08:25:30;;;;;;;20.42;5.03;;;;;;;2.33;80.98;101337.97;5063785;28;20036;-66
2021/04/06 08:28:02;;;;;;;21.05;4.57;;;;;;;2.50;79.73;101337.81;5068849;28;20032;-66
2021/04/06 08:30:31;;;;;;;16.80;3.72;;;;;;;2.95;79.39;101338.94;5065372;28;20016;-67
2021/04/06 08:32:56;;;;;;;19.23;4.55;;;;;;;2.93;78.51;101343.22;5047941;28;20029;-67
2021/04/06 08:35:52;;;;;;;20.70;4.63;;;;;;;3.05;76.18;101342.84;5068786;28;20537;-67
2021/04/06 08:38:20;;;;;;;13.98;3.35;;;;;;;3.14;75.69;101353.69;5059300;28;20083;-67
2021/04/06 08:40:51;;;;;;;16.70;3.58;;;;;;;2.88;73.98;101341.22;5062821;28;20029;-67
2021/04/06 08:43:19;;;;;;;17.35;3.97;;;;;;;2.71;74.51;101336.16;5052111;28;20566;-67
2021/04/06 08:45:54;;;;;;;22.30;4.75;;;;;;;2.51;75.84;101340.50;5129733;27;20138;-64
2021/04/06 08:48:51;;;;;;;21.08;3.90;;;;;;;2.11;76.85;101338.66;5130398;27;20034;-67
2021/04/06 08:51:33;;;;;;;20.77;3.90;;;;;;;2.55;78.71;101325.84;5131930;27;20035;-67
2021/04/06 08:54:01;;;;;;;18.65;4.03;;;;;;;3.30;77.91;101322.97;5131775;27;20022;-67
2021/04/06 08:56:34;;;;;;;19.38;3.83;;;;;;;3.28;74.69;101325.53;5131722;27;20030;-67
2021/04/06 08:59:32;;;;;;;20.60;3.70;;;;;;;2.79;74.33;101331.28;5131379;27;20068;-66
2021/04/06 09:02:17;;;;;;;19.83;4.03;;;;;;;2.53;77.66;101323.16;5128944;28;20156;-67
2021/04/06 09:04:44;;;;;;;22.25;4.30;;;;;;;2.48;77.34;101323.81;5132234;27;20023;-67
2021/04/06 09:07:30;;;;;;;21.65;4.75;;;;;;;2.33;76.27;101314.47;5131517;27;20075;-66
2021/04/06 09:10:02;;;;;;;23.17;4.45;;;;;;;2.53;76.53;101314.47;5130607;28;20027;-66
2021/04/06 09:12:27;;;;;;;22.27;4.65;;;;;;;2.83;76.89;101306.19;5131762;28;20031;-67
2021/04/06 09:14:54;;;;;;;22.05;4.30;;;;;;;2.95;74.03;101301.50;5131284;27;20106;-68
2021/04/06 09:17:25;;;;;;;17.00;3.25;;;;;;;2.87;75.29;101308.09;5130426;28;20031;-68
2021/04/06 09:19:51;;;;;;;19.50;3.63;;;;;;;2.19;70.96;101311.22;5131571;27;20029;-68
2021/04/06 09:22:16;;;;;;;15.65;2.67;;;;;;;1.97;71.73;101309.34;5131931;27;20114;-68
2021/04/06 09:24:44;;;;;;;18.15;3.45;;;;;;;0.91;78.55;101325.91;5132074;28;20122;-68
2021/04/06 09:27:09;;;;;;;12.45;2.30;;;;;;;0.99;78.55;101337.59;5131658;27;20145;-68
2021/04/06 09:29:42;;;;;;;15.35;2.78;;;;;;;0.48;83.76;101341.88;5131006;27;20750;-66
2021/04/06 09:32:10;;;;;;;14.82;2.60;;;;;;;0.63;81.62;101350.50;5132425;27;20107;-66
2021/04/06 09:34:42;;;;;;;14.88;2.38;;;;;;;0.92;79.48;101340.72;5126856;27;20027;-65
2021/04/06 09:37:16;;;;;;;11.68;2.30;;;;;;;0.69;81.98;101343.00;5126969;27;20054;-64
2021/04/06 09:39:54;;;;;;;13.30;2.30;;;;;;;0.66;82.31;101332.44;5132098;27;20016;-64
2021/04/06 09:42:20;;;;;;;10.02;2.10;;;;;;;0.53;85.23;101330.00;5131998;27;20018;-65
2021/04/06 09:44:47;;;;;;;10.20;1.90;;;;;;;0.50;85.27;101335.06;5130247;27;20035;-64
2021/04/06 09:47:17;;;;;;;12.20;2.20;;;;;;;0.87;88.45;101318.75;5131011;27;20189;-65
2021/04/06 09:49:50;;;;;;;4.95;1.88;;;;;;;2.18;82.50;101322.47;5133593;27;20015;-64
2021/04/06 09:52:18;;;;;;;12.80;2.10;;;;;;;3.42;75.35;101309.53;5132992;27;20027;-63
2021/04/06 09:54:50;;;;;;;14.20;2.28;;;;;;;4.24;72.72;101305.75;5133069;27;20461;-66
2021/04/06 09:57:17;;;;;;;11.48;2.47;;;;;;;5.01;66.17;101289.25;5132822;27;20156;-67
2021/04/06 09:59:56;;;;;;;9.65;1.90;;;;;;;5.43;67.77;101288.03;5134011;27;20030;-64
2021/04/06 10:02:25;;;;;;;12.00;2.22;;;;;;;5.89;60.45;101297.34;5133807;27;20019;-64
2021/04/06 10:04:52;;;;;;;8.25;1.85;;;;;;;6.56;60.71;101290.59;5135269;27;20019;-64
2021/04/06 10:07:27;;;;;;;13.65;2.20;;;;;;;6.80;60.08;101284.22;5133790;27;20034;-64
2021/04/06 10:09:59;;;;;;;10.10;2.00;;;;;;;7.15;56.07;101284.28;5134936;27;20024;-63
2021/04/06 10:12:28;;;;;;;15.45;2.50;;;;;;;6.53;58.15;101293.13;5133216;27;20023;-65
2021/04/06 10:14:54;;;;;;;14.35;2.45;;;;;;;6.53;58.78;101295.75;5135068;27;20097;-64
2021/04/06 10:17:23;;;;;;;8.73;2.00;;;;;;;6.34;59.35;101293.47;5134579;27;20122;-65
2021/04/06 10:20:00;;;;;;;12.40;2.30;;;;;;;6.30;59.91;101289.84;5135010;27;20110;-64
2021/04/06 10:22:26;;;;;;;14.07;2.40;;;;;;;6.37;59.71;101294.44;5134193;27;20510;-65
2021/04/06 10:24:56;;;;;;;10.70;2.20;;;;;;;6.23;57.50;101286.19;5134881;27;20043;-64
2021/04/06 10:27:28;;;;;;;16.73;2.50;;;;;;;6.38;54.55;101276.97;5134686;27;20047;-65
2021/04/06 10:29:57;;;;;;;15.75;2.78;;;;;;;5.62;56.49;101276.41;5132733;27;20023;-65
2021/04/06 10:32:31;;;;;;;11.98;2.40;;;;;;;5.50;60.33;101274.28;5133730;27;20075;-64
2021/04/06 10:35:00;;;;;;;15.57;2.60;;;;;;;4.48;62.37;101263.88;5131363;27;20461;-65
2021/04/06 10:37:41;;;;;;;18.73;3.40;;;;;;;3.74;64.40;101268.09;5131772;27;20422;-69
2021/04/06 10:40:33;;;;;;;18.63;4.13;;;;;;;2.81;72.61;101286.94;5126190;27;20219;-66
2021/04/06 10:43:02;;;;;;;16.33;3.55;;;;;;;2.15;73.48;101303.19;5126851;27;20048;-66
2021/04/06 10:45:30;;;;;;;14.18;2.60;;;;;;;1.23;77.52;101305.78;5128871;27;20526;-65
2021/04/06 10:48:22;;;;;;;10.10;2.20;;;;;;;1.50;76.55;101290.63;5133084;27;20031;-64
2021/04/06 10:50:52;;;;;;;10.93;2.40;;;;;;;0.97;80.89;101300.16;5126706;27;20030;-64
2021/04/06 10:53:29;;;;;;;7.80;2.00;;;;;;;1.13;78.67;101286.19;5126592;27;20280;-64
2021/04/06 10:56:03;;;;;;;11.15;2.63;;;;;;;0.81;84.90;101292.41;5131217;27;20028;-65
2021/04/06 10:58:35;;;;;;;12.35;2.30;;;;;;;1.03;86.70;101289.16;5125740;27;20130;-67
2021/04/06 11:01:13;;;;;;;6.88;1.77;;;;;;;2.59;80.95;101267.72;5130748;27;20055;-64
2021/04/06 11:03:49;;;;;;;8.70;2.10;;;;;;;4.30;76.30;101269.34;5129574;27;20377;-65
2021/04/06 11:06:25;;;;;;;8.48;1.98;;;;;;;5.11;70.96;101265.19;5130238;27;20106;-65
2021/04/06 11:08:52;;;;;;;9.48;2.40;;;;;;;6.52;66.26;101256.31;5126810;27;20019;-65
2021/04/06 11:11:21;;;;;;;14.20;2.53;;;;;;;7.15;60.36;101247.47;5129064;27;20019;-65
2021/04/06 11:13:47;;;;;;;8.52;2.00;;;;;;;8.14;61.10;101239.13;5132031;27;20099;-65
2021/04/06 11:16:13;;;;;;;8.65;2.28;;;;;;;8.60;54.18;101248.00;5132190;27;20424;-66
2021/04/06 11:18:39;;;;;;;15.63;2.97;;;;;;;7.93;55.97;101248.38;5130343;27;20132;-64
2021/04/06 11:21:05;;;;;;;14.88;2.80;;;;;;;7.48;55.04;101249.13;5130834;27;20026;-66
2021/04/06 11:23:31;;;;;;;13.32;2.50;;;;;;;6.52;59.56;101241.44;5135061;27;20051;-66
2021/04/06 11:25:56;;;;;;;13.13;2.75;;;;;;;5.82;63.28;101243.78;5132528;27;20040;-66
2021/04/06 11:28:22;;;;;;;14.57;3.00;;;;;;;5.41;61.81;101241.66;5132657;27;20513;-66
2021/04/06 11:30:47;;;;;;;12.70;2.88;;;;;;;5.10;60.13;101231.94;5133749;27;20466;-67
2021/04/06 11:33:12;;;;;;;12.57;2.50;;;;;;;4.25;64.31;101270.00;5131466;27;20016;-66